Terminal Aerodrome Forecast
Issued by NWS Brownsville, TX

Current Version | Previous Version | Text Only | Print | Product List | Glossary Off
Versions: 1 2 3 4 5 6 7 8 9 10 11 12 13 14 15 16

000
FTUS44 KBRO 010530
TAFMFE
TAF
KMFE 010530Z 0106/0206 14007KT P6SM VCSH BKN050
      TEMPO 0106/0109 5SM -RA BR BKN020
     FM011100 16010KT P6SM SCT035 BKN040
     FM011600 18012KT P6SM SCT040 SCT100
     FM020300 01005KT 6SM BR OVC040=

USA.gov is the U.S. government's official web portal to all federal, state and local government web resources and services.